Time;durP1;ratioP1;P1;durP2;ratioP2;P2;SDS_P1;SDS_P2;PMS_P1;PMS_P2;Temp;Humidity;BMP_temperature;BMP_pressure;BME280_temperature;BME280_humidity;BME280_pressure;Samples;Min_cycle;Max_cycle;Signal;HPM_P1;HPM_P2
2021/08/06 00:01:55;;;;;;;3.63;3.10;;;18.30;99.90;;;;;;5029043;28;20429;-38
2021/08/06 00:04:22;;;;;;;3.13;2.83;;;18.20;99.90;;;;;;5039310;28;20241;-39
2021/08/06 00:06:47;;;;;;;3.20;2.90;;;18.20;99.90;;;;;;5029448;28;20198;-39
2021/08/06 00:09:13;;;;;;;3.60;2.83;;;18.20;99.90;;;;;;5028208;28;20441;-39
2021/08/06 00:11:39;;;;;;;3.53;2.93;;;18.20;99.90;;;;;;5039427;28;20273;-38
2021/08/06 00:14:05;;;;;;;3.80;3.00;;;18.20;99.90;;;;;;5033383;28;20421;-38
2021/08/06 00:16:31;;;;;;;3.40;3.10;;;18.20;99.90;;;;;;5029039;28;20707;-38
2021/08/06 00:18:57;;;;;;;3.10;2.80;;;18.20;99.90;;;;;;5033582;28;20428;-38
2021/08/06 00:21:23;;;;;;;3.77;3.20;;;18.20;99.90;;;;;;5028630;28;20443;-38
2021/08/06 00:23:49;;;;;;;4.50;3.20;;;18.20;99.90;;;;;;5028511;28;20472;-38
2021/08/06 00:26:15;;;;;;;4.00;3.00;;;18.20;99.90;;;;;;5033422;28;20202;-39
2021/08/06 00:28:42;;;;;;;3.20;2.90;;;18.10;99.90;;;;;;5041915;28;20417;-40
2021/08/06 00:31:08;;;;;;;3.70;3.40;;;18.10;99.90;;;;;;5030452;28;20187;-39
2021/08/06 00:33:34;;;;;;;3.30;3.00;;;18.10;99.90;;;;;;5029650;28;20433;-39
2021/08/06 00:36:01;;;;;;;3.87;3.47;;;18.10;99.90;;;;;;5028844;28;20460;-41
2021/08/06 00:38:26;;;;;;;2.63;2.40;;;18.10;99.90;;;;;;5027307;28;20429;-39
2021/08/06 00:40:52;;;;;;;6.87;3.67;;;18.10;99.90;;;;;;5031435;28;20441;-38
2021/08/06 00:43:18;;;;;;;3.50;3.23;;;18.10;99.90;;;;;;5042351;28;20292;-38
2021/08/06 00:45:44;;;;;;;3.40;3.10;;;18.10;99.90;;;;;;5033401;28;20193;-39
2021/08/06 00:48:10;;;;;;;3.43;3.10;;;18.00;99.90;;;;;;5028527;28;20190;-38
2021/08/06 00:50:35;;;;;;;3.20;2.97;;;18.10;99.90;;;;;;5037293;28;20448;-38
2021/08/06 00:53:01;;;;;;;3.57;3.23;;;18.10;99.90;;;;;;5028215;28;20204;-38
2021/08/06 00:55:27;;;;;;;3.17;2.97;;;18.10;99.90;;;;;;5029479;28;20186;-38
2021/08/06 00:57:53;;;;;;;3.60;3.30;;;18.10;99.90;;;;;;5038944;28;20186;-38
2021/08/06 01:00:19;;;;;;;3.70;3.40;;;18.10;99.90;;;;;;5035810;28;20283;-39
2021/08/06 01:02:47;;;;;;;3.47;3.17;;;18.00;99.90;;;;;;5028374;28;20194;-39
2021/08/06 01:05:16;;;;;;;3.53;3.23;;;18.00;99.90;;;;;;5033918;28;20299;-39
2021/08/06 01:08:07;;;;;;;3.50;3.20;;;18.00;99.90;;;;;;5027900;28;20432;-38
2021/08/06 01:10:48;;;;;;;3.13;2.93;;;18.00;99.90;;;;;;5020094;28;20437;-39
2021/08/06 01:13:17;;;;;;;3.77;3.07;;;18.00;99.90;;;;;;5038888;28;20436;-38
2021/08/06 01:15:51;;;;;;;3.17;2.93;;;18.00;99.90;;;;;;5042263;28;20429;-38
2021/08/06 01:18:20;;;;;;;3.50;2.93;;;18.00;99.90;;;;;;5027637;28;20796;-38
2021/08/06 01:20:53;;;;;;;3.33;3.07;;;18.00;99.90;;;;;;5029329;28;20460;-39
2021/08/06 01:23:25;;;;;;;3.63;3.33;;;18.00;99.90;;;;;;5027649;28;20449;-38
2021/08/06 01:25:56;;;;;;;5.20;3.40;;;18.00;99.90;;;;;;5032865;28;20979;-39
2021/08/06 01:28:29;;;;;;;3.60;3.30;;;18.00;99.90;;;;;;5032277;28;20444;-39
2021/08/06 01:30:55;;;;;;;3.50;3.00;;;18.00;99.90;;;;;;5030110;28;20421;-39
2021/08/06 01:33:21;;;;;;;3.27;2.97;;;18.00;99.90;;;;;;5027696;28;20425;-38
2021/08/06 01:35:47;;;;;;;3.67;3.37;;;18.00;99.90;;;;;;5036904;28;20421;-38
2021/08/06 01:38:14;;;;;;;3.97;3.67;;;18.00;99.90;;;;;;5027961;28;20455;-39
2021/08/06 01:40:48;;;;;;;2.90;2.70;;;18.00;99.90;;;;;;5026884;28;20437;-38
2021/08/06 01:43:25;;;;;;;3.23;2.93;;;18.00;99.90;;;;;;5032415;28;20459;-38
2021/08/06 01:46:02;;;;;;;3.90;3.10;;;18.00;99.90;;;;;;5035631;28;20464;-39
2021/08/06 01:48:35;;;;;;;2.97;2.77;;;18.00;99.90;;;;;;5027635;28;20433;-39
2021/08/06 01:51:04;;;;;;;3.00;2.80;;;18.00;99.90;;;;;;5033375;28;20413;-38
2021/08/06 01:53:31;;;;;;;3.27;2.97;;;18.10;99.90;;;;;;5026998;28;20483;-38
2021/08/06 01:56:04;;;;;;;4.27;3.00;;;18.10;99.90;;;;;;5026841;28;20441;-39
2021/08/06 01:58:32;;;;;;;3.20;2.90;;;18.00;99.90;;;;;;5034314;28;20416;-39
2021/08/06 02:00:58;;;;;;;3.57;3.13;;;18.00;99.90;;;;;;5042143;28;20427;-39
2021/08/06 02:03:24;;;;;;;2.90;2.70;;;18.00;99.90;;;;;;5027138;28;20475;-38
2021/08/06 02:05:53;;;;;;;3.90;3.50;;;18.00;99.90;;;;;;5029026;28;20430;-38
2021/08/06 02:08:20;;;;;;;3.30;3.00;;;18.10;99.90;;;;;;5027192;28;20242;-38
2021/08/06 02:10:46;;;;;;;3.40;3.03;;;18.10;99.90;;;;;;5027106;28;20437;-38
2021/08/06 02:13:12;;;;;;;3.10;2.80;;;18.00;99.90;;;;;;5038390;28;20432;-38
2021/08/06 02:15:41;;;;;;;6.40;2.90;;;18.00;99.90;;;;;;5035650;28;20437;-39
2021/08/06 02:18:10;;;;;;;3.30;3.00;;;18.00;99.90;;;;;;5027370;28;20436;-38
2021/08/06 02:20:37;;;;;;;3.27;3.07;;;18.00;99.90;;;;;;5037820;28;20421;-38
2021/08/06 02:23:06;;;;;;;3.30;3.00;;;18.00;99.90;;;;;;5026818;28;20421;-38
2021/08/06 02:25:33;;;;;;;3.00;2.70;;;18.00;99.90;;;;;;5026736;28;20951;-38
2021/08/06 02:28:00;;;;;;;3.83;2.83;;;18.00;99.90;;;;;;5035702;28;20433;-38
2021/08/06 02:30:27;;;;;;;3.50;3.20;;;18.00;99.90;;;;;;5035222;28;20429;-38
2021/08/06 02:32:53;;;;;;;3.03;2.80;;;17.90;99.90;;;;;;5029542;28;21111;-38
2021/08/06 02:35:19;;;;;;;3.60;3.30;;;18.00;99.90;;;;;;5036135;28;20791;-38
2021/08/06 02:37:46;;;;;;;3.60;3.10;;;18.00;99.90;;;;;;5029539;28;20429;-38
2021/08/06 02:40:13;;;;;;;4.93;3.30;;;18.00;99.90;;;;;;5030990;28;20297;-38
2021/08/06 02:42:38;;;;;;;2.83;2.63;;;17.90;99.90;;;;;;5035938;28;20474;-38
2021/08/06 02:45:05;;;;;;;4.33;3.73;;;17.90;99.90;;;;;;5043046;28;20560;-39
2021/08/06 02:47:31;;;;;;;3.60;3.30;;;17.90;99.90;;;;;;5039077;28;20210;-38
2021/08/06 02:49:56;;;;;;;3.80;3.50;;;17.80;99.90;;;;;;5031966;28;20448;-39
2021/08/06 02:52:22;;;;;;;4.23;3.50;;;17.80;99.90;;;;;;5030142;28;20217;-38
2021/08/06 02:54:48;;;;;;;3.90;3.50;;;17.80;99.90;;;;;;5029876;28;20202;-39
2021/08/06 02:57:13;;;;;;;3.30;3.00;;;17.80;99.90;;;;;;5034410;28;20293;-39
2021/08/06 02:59:39;;;;;;;3.03;2.80;;;17.80;99.90;;;;;;5046607;28;20644;-38
2021/08/06 03:02:05;;;;;;;3.67;3.10;;;17.80;99.90;;;;;;5030787;28;20221;-38
2021/08/06 03:04:30;;;;;;;3.43;3.13;;;17.80;99.90;;;;;;5034012;28;20340;-38
2021/08/06 03:06:56;;;;;;;3.57;3.23;;;17.70;99.90;;;;;;5038882;28;20637;-40
2021/08/06 03:09:22;;;;;;;3.43;2.90;;;17.70;99.90;;;;;;5029748;28;20217;-38
2021/08/06 03:11:47;;;;;;;3.77;3.47;;;17.70;99.90;;;;;;5029396;28;20190;-38
2021/08/06 03:14:14;;;;;;;3.43;3.10;;;17.70;99.90;;;;;;5037866;28;20193;-40
2021/08/06 03:16:39;;;;;;;4.20;3.10;;;17.80;99.90;;;;;;5036862;28;20191;-38
2021/08/06 03:19:05;;;;;;;3.07;2.53;;;17.80;99.90;;;;;;5028386;28;20464;-38
2021/08/06 03:21:31;;;;;;;3.97;3.27;;;17.80;99.90;;;;;;5036171;28;20273;-39
2021/08/06 03:23:56;;;;;;;3.90;2.97;;;17.70;99.90;;;;;;5029644;28;20214;-38
2021/08/06 03:26:22;;;;;;;3.30;3.00;;;17.70;99.90;;;;;;5030133;28;20186;-38
2021/08/06 03:28:48;;;;;;;3.20;2.87;;;17.70;99.90;;;;;;5040204;28;20198;-38
2021/08/06 03:31:13;;;;;;;4.00;3.60;;;17.70;99.90;;;;;;5045434;28;20803;-38
2021/08/06 03:33:39;;;;;;;4.00;3.00;;;17.70;99.90;;;;;;5030178;28;20192;-40
2021/08/06 03:36:05;;;;;;;3.40;3.10;;;17.70;99.90;;;;;;5032227;28;20213;-39
2021/08/06 03:38:30;;;;;;;3.60;3.30;;;17.70;99.90;;;;;;5028509;28;20221;-40
2021/08/06 03:40:56;;;;;;;3.90;3.10;;;17.70;99.90;;;;;;5029340;28;20198;-38
2021/08/06 03:43:22;;;;;;;3.07;2.87;;;17.70;99.90;;;;;;5042738;28;20249;-38
2021/08/06 03:45:47;;;;;;;3.33;2.93;;;17.80;99.90;;;;;;5038073;28;20553;-39
2021/08/06 03:48:13;;;;;;;3.90;3.20;;;17.70;99.90;;;;;;5031843;28;20186;-40
2021/08/06 03:50:39;;;;;;;3.63;3.30;;;17.80;99.90;;;;;;5039242;28;20194;-40
2021/08/06 03:53:05;;;;;;;5.30;3.00;;;17.70;99.90;;;;;;5031772;28;20198;-38
2021/08/06 03:55:31;;;;;;;3.37;3.07;;;17.70;99.90;;;;;;5029736;28;20456;-38
2021/08/06 03:57:58;;;;;;;3.67;3.30;;;17.70;99.90;;;;;;5029669;28;20469;-39
2021/08/06 04:00:27;;;;;;;4.27;2.90;;;17.70;99.90;;;;;;5034174;28;20186;-39
2021/08/06 04:02:53;;;;;;;5.10;2.90;;;17.70;99.90;;;;;;5028895;28;20425;-39
2021/08/06 04:05:19;;;;;;;3.27;2.83;;;17.70;99.90;;;;;;5040355;28;20546;-39
2021/08/06 04:07:46;;;;;;;3.43;2.70;;;17.70;99.90;;;;;;5031167;28;20244;-38
2021/08/06 04:10:14;;;;;;;3.17;2.87;;;17.70;99.90;;;;;;5029189;28;20436;-38
2021/08/06 04:12:39;;;;;;;3.63;2.87;;;17.70;99.90;;;;;;5032255;28;20442;-38
2021/08/06 04:15:06;;;;;;;2.83;2.63;;;17.70;99.90;;;;;;5043112;28;20432;-38
2021/08/06 04:17:32;;;;;;;3.67;3.40;;;17.70;99.90;;;;;;5042464;28;20195;-38
2021/08/06 04:19:57;;;;;;;4.43;3.10;;;17.70;99.90;;;;;;5031128;28;20432;-39
2021/08/06 04:22:23;;;;;;;7.93;3.47;;;17.70;99.90;;;;;;5030327;28;20705;-38
2021/08/06 04:24:49;;;;;;;3.50;2.90;;;17.70;99.90;;;;;;5028816;28;20222;-39
2021/08/06 04:27:15;;;;;;;3.70;2.53;;;17.60;99.90;;;;;;5032076;28;20198;-38
2021/08/06 04:29:40;;;;;;;4.77;3.13;;;17.70;99.90;;;;;;5041368;28;20185;-38
2021/08/06 04:32:06;;;;;;;3.33;3.03;;;17.60;99.90;;;;;;5034604;28;20198;-38
2021/08/06 04:34:32;;;;;;;4.50;3.37;;;17.60;99.90;;;;;;5027552;28;20700;-38
2021/08/06 04:36:58;;;;;;;2.93;2.60;;;17.50;99.90;;;;;;5041883;28;20429;-38
2021/08/06 04:39:23;;;;;;;2.87;2.67;;;17.50;99.90;;;;;;5028799;28;20190;-40
2021/08/06 04:41:49;;;;;;;3.33;2.90;;;17.50;99.90;;;;;;5027974;28;20194;-38
2021/08/06 04:44:16;;;;;;;3.30;3.00;;;17.50;99.90;;;;;;5037390;28;20236;-38
2021/08/06 04:46:42;;;;;;;3.30;3.00;;;17.40;99.90;;;;;;5036026;28;20418;-38
2021/08/06 04:49:08;;;;;;;3.90;3.17;;;17.40;99.90;;;;;;5028634;28;20783;-38
2021/08/06 04:51:34;;;;;;;3.70;3.13;;;17.40;99.90;;;;;;5037498;28;20190;-38
2021/08/06 04:53:59;;;;;;;3.60;3.30;;;17.40;99.90;;;;;;5026948;28;20190;-38
2021/08/06 04:56:25;;;;;;;3.13;2.83;;;17.40;99.90;;;;;;5026678;28;20478;-38
2021/08/06 04:58:51;;;;;;;3.30;3.00;;;17.40;99.90;;;;;;5038486;28;20565;-38
2021/08/06 05:01:16;;;;;;;4.10;3.60;;;17.30;99.90;;;;;;5032557;28;20194;-38
2021/08/06 05:03:42;;;;;;;3.40;2.83;;;17.30;99.90;;;;;;5026263;28;20219;-38
2021/08/06 05:06:08;;;;;;;3.43;2.93;;;17.30;99.90;;;;;;5039925;28;20194;-39
2021/08/06 05:08:33;;;;;;;4.57;3.50;;;17.30;99.90;;;;;;5026235;28;20577;-39
2021/08/06 05:10:59;;;;;;;3.80;3.50;;;17.30;99.90;;;;;;5034671;28;20364;-38
2021/08/06 05:13:25;;;;;;;3.67;3.37;;;17.30;99.90;;;;;;5040689;28;20205;-38
2021/08/06 05:15:52;;;;;;;3.33;3.00;;;17.20;99.90;;;;;;5039432;28;20443;-40
2021/08/06 05:18:19;;;;;;;3.50;3.20;;;17.30;99.90;;;;;;5035785;28;20777;-38
2021/08/06 05:20:45;;;;;;;3.00;2.80;;;17.30;99.90;;;;;;5033674;28;20424;-38
2021/08/06 05:23:10;;;;;;;3.60;3.30;;;17.30;99.90;;;;;;5033812;28;20520;-38
2021/08/06 05:25:36;;;;;;;3.40;2.97;;;17.30;99.90;;;;;;5025928;28;20535;-38
2021/08/06 05:28:02;;;;;;;3.50;3.20;;;17.30;99.90;;;;;;5028765;28;20341;-38
2021/08/06 05:30:28;;;;;;;2.90;2.60;;;17.40;99.90;;;;;;5040732;28;20190;-38
2021/08/06 05:32:54;;;;;;;2.90;2.70;;;17.40;99.90;;;;;;5029408;28;20213;-39
2021/08/06 05:35:19;;;;;;;3.03;2.83;;;17.40;99.90;;;;;;5026581;28;20429;-38
2021/08/06 05:37:45;;;;;;;3.50;3.20;;;17.40;99.90;;;;;;5033947;28;20198;-38
2021/08/06 05:40:11;;;;;;;4.50;3.57;;;17.40;99.90;;;;;;5025666;28;20202;-39
2021/08/06 05:42:37;;;;;;;3.13;2.93;;;17.40;99.90;;;;;;5027323;28;20559;-38
2021/08/06 05:45:03;;;;;;;4.37;3.23;;;17.50;99.90;;;;;;5037170;28;20473;-38
2021/08/06 05:47:47;;;;;;;4.30;3.17;;;17.40;99.90;;;;;;5033463;28;20723;-38
2021/08/06 05:50:15;;;;;;;3.20;2.90;;;17.40;99.90;;;;;;5025216;28;20440;-38
2021/08/06 05:52:42;;;;;;;4.20;3.47;;;17.50;99.90;;;;;;5031351;28;20479;-39
2021/08/06 05:55:08;;;;;;;3.60;3.17;;;17.40;99.90;;;;;;5025607;28;20483;-38
2021/08/06 05:57:34;;;;;;;3.70;3.40;;;17.40;99.90;;;;;;5025393;28;20437;-38
2021/08/06 06:00:00;;;;;;;3.47;3.17;;;17.40;99.90;;;;;;5035177;28;20471;-38
2021/08/06 06:02:26;;;;;;;3.97;3.43;;;17.50;99.90;;;;;;5035156;28;20182;-38
2021/08/06 06:04:51;;;;;;;3.77;3.43;;;17.40;99.90;;;;;;5033476;28;20221;-38
2021/08/06 06:07:17;;;;;;;2.63;2.43;;;17.40;99.90;;;;;;5038961;28;20452;-39
2021/08/06 06:09:43;;;;;;;2.83;2.63;;;17.40;99.90;;;;;;5039018;28;20567;-38
2021/08/06 06:12:08;;;;;;;3.70;3.00;;;17.40;99.90;;;;;;5035876;28;20190;-38
2021/08/06 06:14:34;;;;;;;3.57;3.27;;;17.40;99.90;;;;;;5046643;28;20850;-39
2021/08/06 06:17:00;;;;;;;3.37;3.00;;;17.50;99.90;;;;;;5041899;28;20194;-38
2021/08/06 06:19:25;;;;;;;3.93;3.30;;;17.50;99.90;;;;;;5039684;28;20186;-38
2021/08/06 06:21:51;;;;;;;3.30;2.80;;;17.50;99.90;;;;;;5042890;28;20726;-39
2021/08/06 06:24:17;;;;;;;3.30;3.00;;;17.60;99.90;;;;;;5029623;28;20213;-38
2021/08/06 06:26:42;;;;;;;4.30;2.57;;;17.50;99.90;;;;;;5029501;28;20407;-38
2021/08/06 06:29:08;;;;;;;2.87;2.67;;;17.50;99.90;;;;;;5030728;28;20260;-39
2021/08/06 06:31:34;;;;;;;3.33;2.40;;;17.50;99.90;;;;;;5039286;28;20615;-38
2021/08/06 06:34:00;;;;;;;4.53;2.80;;;17.60;99.90;;;;;;5033876;28;20227;-39
2021/08/06 06:36:27;;;;;;;2.40;2.20;;;17.60;99.90;;;;;;5038956;28;20189;-39
2021/08/06 06:38:53;;;;;;;4.73;2.80;;;17.60;99.90;;;;;;5042921;28;20432;-38
2021/08/06 06:41:18;;;;;;;2.43;2.23;;;17.60;99.90;;;;;;5034871;28;20428;-38
2021/08/06 06:43:44;;;;;;;2.73;2.47;;;17.60;99.90;;;;;;5028954;28;20655;-38
2021/08/06 06:46:10;;;;;;;3.40;2.90;;;17.60;99.90;;;;;;5039571;28;20186;-38
2021/08/06 06:48:35;;;;;;;4.60;2.70;;;17.60;99.90;;;;;;5040218;28;20664;-38
2021/08/06 06:51:01;;;;;;;2.47;2.27;;;17.70;99.90;;;;;;5031853;28;20197;-39
2021/08/06 06:53:27;;;;;;;3.53;2.40;;;17.70;99.90;;;;;;5028371;28;20495;-38
2021/08/06 06:55:52;;;;;;;3.33;2.50;;;17.60;99.90;;;;;;5028717;28;20197;-38
2021/08/06 06:58:18;;;;;;;2.57;2.37;;;17.60;99.90;;;;;;5034643;28;20189;-39
2021/08/06 07:00:44;;;;;;;2.20;2.00;;;17.60;99.90;;;;;;5039566;28;20758;-39
2021/08/06 07:03:10;;;;;;;2.93;2.40;;;17.70;99.90;;;;;;5031642;28;20222;-38
2021/08/06 07:05:36;;;;;;;2.67;2.47;;;17.70;99.90;;;;;;5042365;28;20716;-38
2021/08/06 07:08:02;;;;;;;2.37;2.17;;;17.70;99.90;;;;;;5041400;28;20224;-38
2021/08/06 07:10:29;;;;;;;3.20;2.43;;;17.70;99.90;;;;;;5026748;28;20448;-38
2021/08/06 07:12:55;;;;;;;2.73;2.53;;;17.80;99.90;;;;;;5027703;28;20445;-37
2021/08/06 07:15:21;;;;;;;2.20;2.10;;;17.80;99.90;;;;;;5036939;28;20421;-40
2021/08/06 07:17:47;;;;;;;2.47;2.27;;;17.80;99.90;;;;;;5034624;28;20443;-38
2021/08/06 07:20:15;;;;;;;2.50;2.30;;;17.80;99.90;;;;;;5038588;28;20443;-38
2021/08/06 07:22:41;;;;;;;2.90;2.70;;;17.90;99.90;;;;;;5035398;28;20418;-38
2021/08/06 07:25:10;;;;;;;2.67;2.47;;;17.90;99.90;;;;;;5034105;28;20460;-39
2021/08/06 07:27:36;;;;;;;2.70;2.50;;;17.90;99.90;;;;;;5029324;28;20461;-38
2021/08/06 07:30:03;;;;;;;4.90;2.50;;;18.00;99.90;;;;;;5040673;28;20425;-40
2021/08/06 07:32:29;;;;;;;2.40;2.20;;;18.00;99.90;;;;;;5045773;28;20427;-38
2021/08/06 07:34:54;;;;;;;3.03;2.73;;;18.00;99.90;;;;;;5030109;28;20800;-39
2021/08/06 07:37:21;;;;;;;3.10;2.90;;;18.10;99.90;;;;;;5030261;28;20189;-39
2021/08/06 07:39:47;;;;;;;3.37;2.40;;;18.10;99.90;;;;;;5037228;28;20537;-38
2021/08/06 07:42:12;;;;;;;2.03;1.93;;;18.10;99.90;;;;;;5047754;28;20424;-39
2021/08/06 07:44:38;;;;;;;2.83;2.53;;;18.20;99.90;;;;;;5035102;28;20241;-38
2021/08/06 07:47:04;;;;;;;2.90;2.70;;;18.20;99.90;;;;;;5045597;28;20189;-39
2021/08/06 07:49:29;;;;;;;4.27;2.60;;;18.20;99.90;;;;;;5028017;28;20183;-40
2021/08/06 07:51:55;;;;;;;2.60;2.40;;;18.20;99.90;;;;;;5033893;28;20178;-38
2021/08/06 07:54:21;;;;;;;2.10;2.00;;;18.20;99.90;;;;;;5036344;28;20660;-39
2021/08/06 07:56:46;;;;;;;2.93;2.73;;;18.30;99.90;;;;;;5027916;28;20556;-39
2021/08/06 07:59:14;;;;;;;2.77;2.57;;;18.30;99.90;;;;;;5029971;28;21012;-39
2021/08/06 08:01:40;;;;;;;2.53;2.33;;;18.30;99.90;;;;;;5042014;28;20189;-38
2021/08/06 08:04:05;;;;;;;3.13;2.60;;;18.40;99.90;;;;;;5030131;28;20475;-39
2021/08/06 08:06:31;;;;;;;2.40;2.13;;;18.40;99.90;;;;;;5035954;28;20200;-38
2021/08/06 08:08:56;;;;;;;2.70;2.50;;;18.30;99.90;;;;;;5041601;28;20259;-38
2021/08/06 08:11:22;;;;;;;2.40;2.20;;;18.40;99.90;;;;;;5047435;28;20182;-39
2021/08/06 08:13:48;;;;;;;2.33;2.10;;;18.40;99.90;;;;;;5041875;28;20281;-39
2021/08/06 08:16:13;;;;;;;2.30;2.10;;;18.40;99.90;;;;;;5038395;28;20190;-38
2021/08/06 08:18:39;;;;;;;2.40;2.20;;;18.50;99.90;;;;;;5045603;28;20190;-39
2021/08/06 08:21:05;;;;;;;2.27;2.17;;;18.50;99.90;;;;;;5026838;28;20190;-38
2021/08/06 08:23:30;;;;;;;2.67;2.47;;;18.50;99.90;;;;;;5037720;28;20206;-41
2021/08/06 08:25:56;;;;;;;4.07;2.20;;;18.60;99.90;;;;;;5029461;28;20190;-40
2021/08/06 08:28:23;;;;;;;3.20;2.90;;;18.60;99.90;;;;;;5036092;28;20219;-40
2021/08/06 08:30:49;;;;;;;2.53;2.37;;;18.60;99.90;;;;;;5037956;28;20178;-39
2021/08/06 08:33:20;;;;;;;3.10;2.90;;;18.60;99.90;;;;;;5033734;28;20921;-39
2021/08/06 08:35:46;;;;;;;3.20;2.90;;;18.70;99.90;;;;;;5026027;28;20428;-38
2021/08/06 08:38:11;;;;;;;3.30;2.50;;;18.70;99.90;;;;;;5026852;28;20429;-38
2021/08/06 08:40:39;;;;;;;3.30;3.10;;;18.70;99.90;;;;;;5026965;28;20479;-39
2021/08/06 08:43:05;;;;;;;4.13;3.07;;;18.70;99.90;;;;;;5026082;28;20673;-39
2021/08/06 08:45:31;;;;;;;2.93;2.73;;;18.80;99.90;;;;;;5030654;28;20460;-39
2021/08/06 08:47:57;;;;;;;3.60;2.90;;;18.90;99.90;;;;;;5031367;28;21072;-40
2021/08/06 08:50:24;;;;;;;2.80;2.60;;;19.00;99.90;;;;;;5026240;28;20182;-39
2021/08/06 08:52:50;;;;;;;3.27;2.93;;;19.00;99.90;;;;;;5035600;28;20421;-38
2021/08/06 08:55:16;;;;;;;3.13;2.90;;;19.10;99.90;;;;;;5026752;28;20547;-41
2021/08/06 08:57:42;;;;;;;3.50;3.20;;;19.10;99.90;;;;;;5026942;28;20676;-39
2021/08/06 09:00:09;;;;;;;2.90;2.70;;;19.10;99.90;;;;;;5027021;28;20194;-39
2021/08/06 09:02:39;;;;;;;3.93;2.83;;;19.10;99.90;;;;;;5037147;28;20198;-40
2021/08/06 09:05:17;;;;;;;3.03;2.80;;;19.10;99.90;;;;;;5025819;28;20468;-39
2021/08/06 09:07:44;;;;;;;3.20;2.90;;;19.10;99.90;;;;;;5031884;28;20907;-39
2021/08/06 09:10:17;;;;;;;2.97;2.77;;;19.10;99.90;;;;;;5026054;28;20522;-39
2021/08/06 09:12:47;;;;;;;3.50;3.20;;;19.10;99.90;;;;;;5026488;28;20425;-38
2021/08/06 09:15:12;;;;;;;3.00;2.70;;;19.20;99.90;;;;;;5027969;28;20767;-39
2021/08/06 09:17:38;;;;;;;3.90;3.10;;;19.20;99.90;;;;;;5037790;28;20535;-39
2021/08/06 09:20:07;;;;;;;3.67;2.97;;;19.20;99.90;;;;;;5026171;28;20425;-40
2021/08/06 09:22:33;;;;;;;3.07;2.80;;;19.20;99.90;;;;;;5027385;28;20485;-39
2021/08/06 09:24:58;;;;;;;2.67;2.20;;;19.10;99.90;;;;;;5025960;28;20551;-39
2021/08/06 09:27:24;;;;;;;3.03;2.60;;;19.10;99.90;;;;;;5026067;28;20191;-41
2021/08/06 09:29:50;;;;;;;1.93;1.73;;;19.10;99.90;;;;;;5032915;28;20183;-40
2021/08/06 09:32:16;;;;;;;4.17;1.70;;;19.10;99.90;;;;;;5035338;28;20432;-38
2021/08/06 09:34:45;;;;;;;1.40;1.30;;;19.10;99.90;;;;;;5026700;28;20214;-40
2021/08/06 09:37:18;;;;;;;1.60;1.50;;;19.00;99.90;;;;;;5028841;28;20185;-39
2021/08/06 09:39:49;;;;;;;2.30;1.47;;;19.00;99.90;;;;;;5031771;28;20475;-39
2021/08/06 09:42:25;;;;;;;3.33;1.67;;;19.00;99.90;;;;;;5025311;28;20524;-39
2021/08/06 09:45:01;;;;;;;1.90;1.70;;;19.00;99.90;;;;;;5028383;28;20468;-41
2021/08/06 09:47:28;;;;;;;2.20;1.63;;;19.00;99.90;;;;;;5030594;28;20447;-39
2021/08/06 09:49:56;;;;;;;2.50;1.80;;;19.00;99.90;;;;;;5027201;28;20994;-39
2021/08/06 09:52:28;;;;;;;2.47;1.77;;;18.90;99.90;;;;;;5029833;28;20420;-41
2021/08/06 09:54:53;;;;;;;1.40;1.30;;;18.90;99.90;;;;;;5026903;28;20765;-39
2021/08/06 09:57:20;;;;;;;1.63;1.53;;;19.00;99.90;;;;;;5025703;28;20436;-39
2021/08/06 09:59:51;;;;;;;2.07;1.90;;;19.00;99.90;;;;;;5027364;28;20305;-39
2021/08/06 10:02:25;;;;;;;2.40;2.10;;;19.00;99.90;;;;;;5041475;28;20431;-39
2021/08/06 10:05:12;;;;;;;3.17;1.97;;;19.10;99.90;;;;;;5025385;28;20511;-39
2021/08/06 10:07:44;;;;;;;3.43;1.83;;;19.30;99.90;;;;;;5026905;28;20933;-41
2021/08/06 10:10:17;;;;;;;1.60;1.50;;;19.30;99.90;;;;;;5025430;28;20911;-38
2021/08/06 10:12:44;;;;;;;1.80;1.70;;;19.40;99.90;;;;;;5025464;28;20776;-40
2021/08/06 10:15:10;;;;;;;3.37;1.70;;;19.50;99.90;;;;;;5029016;28;20445;-39
2021/08/06 10:17:36;;;;;;;2.50;2.00;;;19.50;99.90;;;;;;5040801;28;20574;-41
2021/08/06 10:20:05;;;;;;;3.00;1.93;;;19.50;99.90;;;;;;5026824;28;20428;-39
2021/08/06 10:22:31;;;;;;;2.87;1.97;;;19.50;99.90;;;;;;5028672;28;20662;-39
2021/08/06 10:24:57;;;;;;;2.50;2.23;;;19.50;99.90;;;;;;5031018;28;20465;-39
2021/08/06 10:27:26;;;;;;;2.40;1.90;;;19.50;99.90;;;;;;5025488;28;20417;-39
2021/08/06 10:30:28;;;;;;;1.87;1.73;;;19.50;99.90;;;;;;5026864;28;20673;-39
2021/08/06 10:33:34;;;;;;;2.37;1.97;;;19.50;99.90;;;;;;5029104;28;20502;-39
2021/08/06 10:36:04;;;;;;;3.37;2.03;;;19.60;99.90;;;;;;5025462;28;20421;-39
2021/08/06 10:38:35;;;;;;;1.50;1.20;;;19.60;99.90;;;;;;5031543;28;20519;-39
2021/08/06 10:41:08;;;;;;;1.90;1.70;;;19.70;99.90;;;;;;5025195;28;20424;-39
2021/08/06 10:43:38;;;;;;;1.70;1.60;;;19.70;99.90;;;;;;5024904;28;20457;-39
2021/08/06 10:46:04;;;;;;;2.93;2.07;;;19.80;99.90;;;;;;5033714;28;20446;-39
2021/08/06 10:48:42;;;;;;;2.00;1.80;;;19.80;99.90;;;;;;5034451;28;20416;-38
2021/08/06 10:51:16;;;;;;;2.87;2.67;;;19.90;99.90;;;;;;5029789;28;20415;-39
2021/08/06 10:53:47;;;;;;;2.50;2.30;;;19.90;99.90;;;;;;5029047;28;20420;-39
2021/08/06 10:56:16;;;;;;;3.37;3.10;;;20.00;99.90;;;;;;5029585;28;20942;-39
2021/08/06 10:58:50;;;;;;;2.80;2.57;;;20.00;99.90;;;;;;5027450;28;20467;-40
2021/08/06 11:01:30;;;;;;;4.23;2.30;;;20.10;99.90;;;;;;5040261;28;20637;-39
2021/08/06 11:03:56;;;;;;;2.43;2.23;;;20.10;99.90;;;;;;5036827;28;20675;-40
2021/08/06 11:06:40;;;;;;;4.27;2.40;;;20.30;99.90;;;;;;5029035;28;20929;-40
2021/08/06 11:09:08;;;;;;;2.33;2.13;;;20.40;99.90;;;;;;5040088;28;20840;-38
2021/08/06 11:11:56;;;;;;;2.47;2.27;;;20.50;99.90;;;;;;5028375;28;20926;-39
2021/08/06 11:14:28;;;;;;;2.33;2.20;;;20.50;99.90;;;;;;5027801;28;20451;-39
2021/08/06 11:17:10;;;;;;;2.20;1.90;;;20.60;99.90;;;;;;5029449;28;20682;-42
2021/08/06 11:19:46;;;;;;;2.20;2.00;;;20.60;99.90;;;;;;5030863;28;20423;-39
2021/08/06 11:22:17;;;;;;;3.87;2.50;;;20.70;99.90;;;;;;5026856;28;20723;-40
2021/08/06 11:25:10;;;;;;;4.47;2.40;;;20.70;99.90;;;;;;5035822;28;20882;-39
2021/08/06 11:27:40;;;;;;;2.73;2.53;;;20.70;99.90;;;;;;5028551;28;20491;-41
2021/08/06 11:30:13;;;;;;;3.77;2.70;;;20.70;99.90;;;;;;5036792;28;20845;-39
2021/08/06 11:32:56;;;;;;;2.87;2.23;;;20.70;99.90;;;;;;5035106;28;20421;-40
2021/08/06 11:35:33;;;;;;;2.70;2.50;;;20.70;99.90;;;;;;5039958;28;20483;-38
2021/08/06 11:38:01;;;;;;;2.60;2.40;;;20.60;99.90;;;;;;5031226;28;21162;-39
2021/08/06 11:40:32;;;;;;;6.00;2.63;;;20.60;99.90;;;;;;5027660;28;20425;-39
2021/08/06 11:43:08;;;;;;;3.50;2.73;;;20.50;99.90;;;;;;5027932;28;20811;-38
2021/08/06 11:45:33;;;;;;;3.40;2.87;;;20.50;99.90;;;;;;5031665;28;20467;-41
2021/08/06 11:48:02;;;;;;;3.30;2.23;;;20.40;99.90;;;;;;5041812;28;20419;-40
2021/08/06 11:50:47;;;;;;;4.80;1.90;;;20.30;99.90;;;;;;5031704;28;20614;-39
2021/08/06 11:53:14;;;;;;;2.30;2.10;;;20.10;99.90;;;;;;5032334;28;20641;-39
2021/08/06 11:55:40;;;;;;;1.93;1.83;;;20.00;99.90;;;;;;5035100;28;20432;-40
2021/08/06 11:58:06;;;;;;;2.40;2.10;;;19.90;99.90;;;;;;5027828;28;20842;-38
2021/08/06 12:00:34;;;;;;;2.37;2.27;;;19.80;99.90;;;;;;5030196;28;20245;-39
2021/08/06 12:03:08;;;;;;;4.00;2.03;;;19.70;99.90;;;;;;5032661;28;20635;-39
2021/08/06 12:05:35;;;;;;;2.60;2.13;;;19.60;99.90;;;;;;5027613;28;20489;-41
2021/08/06 12:08:20;;;;;;;2.50;2.27;;;19.60;99.90;;;;;;5032954;28;20463;-39
2021/08/06 12:10:53;;;;;;;2.50;2.30;;;19.60;99.90;;;;;;5031428;28;20827;-38
2021/08/06 12:13:23;;;;;;;2.60;2.40;;;19.60;99.90;;;;;;5027241;28;20452;-39
2021/08/06 12:16:00;;;;;;;3.40;2.43;;;19.60;99.90;;;;;;5031705;28;20433;-39
2021/08/06 12:18:25;;;;;;;7.23;2.50;;;19.80;99.90;;;;;;5043044;28;20408;-38
2021/08/06 12:20:58;;;;;;;3.40;2.67;;;19.90;99.90;;;;;;5040063;28;20429;-39
2021/08/06 12:23:24;;;;;;;4.37;2.47;;;20.00;99.90;;;;;;5030522;28;20548;-40
2021/08/06 12:26:11;;;;;;;2.50;2.30;;;20.10;99.90;;;;;;5034655;28;20433;-42
2021/08/06 12:28:42;;;;;;;2.53;2.07;;;20.30;99.90;;;;;;5036486;28;20393;-39
2021/08/06 12:31:19;;;;;;;3.43;2.20;;;20.40;99.90;;;;;;5035277;28;20854;-39
2021/08/06 12:33:47;;;;;;;2.57;2.37;;;20.60;99.90;;;;;;5036640;28;20445;-39
2021/08/06 12:36:17;;;;;;;2.50;2.30;;;20.70;99.90;;;;;;5044072;28;20503;-41
2021/08/06 12:38:43;;;;;;;4.27;2.70;;;20.80;99.90;;;;;;5041836;28;20736;-40
2021/08/06 12:41:23;;;;;;;4.13;2.63;;;20.80;99.90;;;;;;5033394;28;20790;-39
2021/08/06 12:44:12;;;;;;;3.70;2.30;;;20.90;99.90;;;;;;5035874;28;20545;-39
2021/08/06 12:46:38;;;;;;;2.57;2.27;;;20.90;99.90;;;;;;5027331;28;20751;-38
2021/08/06 12:49:07;;;;;;;2.67;2.30;;;20.80;99.90;;;;;;5043326;28;20466;-39
2021/08/06 12:51:34;;;;;;;2.37;2.10;;;20.90;99.90;;;;;;5026873;28;20248;-40
2021/08/06 12:54:00;;;;;;;2.20;2.00;;;20.90;99.90;;;;;;5033207;28;20645;-39